sensor_id;sensor_type;location;lat;lon;timestamp;pressure;altitude;pressure_sealevel;temperature;humidity
60427;BME280;46274;47.168;27.604;2023-03-01T00:01:30;101234.88;;;-0.66;82.96
60427;BME280;46274;47.168;27.604;2023-03-01T00:07:32;101221.31;;;-1.34;84.38
60427;BME280;46274;47.168;27.604;2023-03-01T00:13:35;101106.66;;;-1.64;83.54
60427;BME280;46274;47.168;27.604;2023-03-01T00:19:38;101194.00;;;-1.19;84.24
60427;BME280;46274;47.168;27.604;2023-03-01T00:25:42;101217.44;;;-0.19;81.27
60427;BME280;46274;47.168;27.604;2023-03-01T00:31:44;101178.66;;;-0.42;80.96
60427;BME280;46274;47.168;27.604;2023-03-01T00:37:47;101225.34;;;-0.18;81.18
60427;BME280;46274;47.168;27.604;2023-03-01T00:43:50;101210.84;;;-0.64;82.34
60427;BME280;46274;47.168;27.604;2023-03-01T00:49:52;101217.41;;;-1.08;84.81
60427;BME280;46274;47.168;27.604;2023-03-01T00:55:57;101140.28;;;-1.63;85.24
60427;BME280;46274;47.168;27.604;2023-03-01T01:01:59;101189.06;;;-1.09;83.82
60427;BME280;46274;47.168;27.604;2023-03-01T01:08:01;101050.97;;;-1.85;84.25
60427;BME280;46274;47.168;27.604;2023-03-01T01:14:05;101141.72;;;-0.83;82.04
60427;BME280;46274;47.168;27.604;2023-03-01T01:20:08;101181.72;;;-0.85;83.56
60427;BME280;46274;47.168;27.604;2023-03-01T01:26:17;101171.47;;;-0.58;82.09
60427;BME280;46274;47.168;27.604;2023-03-01T01:32:21;101179.78;;;-0.64;82.90
60427;BME280;46274;47.168;27.604;2023-03-01T01:38:27;101006.66;;;-1.84;84.18
60427;BME280;46274;47.168;27.604;2023-03-01T01:44:30;101169.13;;;-0.64;82.67
60427;BME280;46274;47.168;27.604;2023-03-01T01:50:33;101136.44;;;-1.02;83.95
60427;BME280;46274;47.168;27.604;2023-03-01T01:56:42;101160.00;;;-0.95;84.38
60427;BME280;46274;47.168;27.604;2023-03-01T02:02:51;101152.44;;;-0.50;82.32
60427;BME280;46274;47.168;27.604;2023-03-01T02:09:04;101145.41;;;-0.51;82.11
60427;BME280;46274;47.168;27.604;2023-03-01T02:15:09;101129.50;;;-0.70;82.06
60427;BME280;46274;47.168;27.604;2023-03-01T02:21:49;101122.56;;;-1.26;83.62
60427;BME280;46274;47.168;27.604;2023-03-01T02:28:04;101119.81;;;-1.61;85.50
60427;BME280;46274;47.168;27.604;2023-03-01T02:34:16;101104.72;;;-1.42;85.06
60427;BME280;46274;47.168;27.604;2023-03-01T02:40:19;101136.47;;;-0.68;81.93
60427;BME280;46274;47.168;27.604;2023-03-01T02:46:25;101130.53;;;-0.90;82.07
60427;BME280;46274;47.168;27.604;2023-03-01T02:52:45;101125.34;;;-0.58;80.81
60427;BME280;46274;47.168;27.604;2023-03-01T02:58:51;101098.91;;;-0.96;81.82
60427;BME280;46274;47.168;27.604;2023-03-01T03:04:53;101080.34;;;-0.63;80.29
60427;BME280;46274;47.168;27.604;2023-03-01T03:10:56;101052.19;;;-0.84;79.88
60427;BME280;46274;47.168;27.604;2023-03-01T03:16:58;101110.72;;;-0.67;80.68
60427;BME280;46274;47.168;27.604;2023-03-01T03:23:03;100990.41;;;-1.42;80.31
60427;BME280;46274;47.168;27.604;2023-03-01T03:29:06;101071.28;;;-0.94;80.00
60427;BME280;46274;47.168;27.604;2023-03-01T03:35:09;101114.31;;;-0.68;79.85
60427;BME280;46274;47.168;27.604;2023-03-01T03:41:13;101103.50;;;-0.65;79.40
60427;BME280;46274;47.168;27.604;2023-03-01T03:47:16;101101.00;;;-1.76;81.61
60427;BME280;46274;47.168;27.604;2023-03-01T03:53:19;101089.91;;;-0.94;79.18
60427;BME280;46274;47.168;27.604;2023-03-01T03:59:24;100940.41;;;-3.20;80.77
60427;BME280;46274;47.168;27.604;2023-03-01T04:05:29;101104.69;;;-1.05;78.67
60427;BME280;46274;47.168;27.604;2023-03-01T04:11:32;101076.06;;;-1.54;79.25
60427;BME280;46274;47.168;27.604;2023-03-01T04:17:38;101058.88;;;-1.29;78.08
60427;BME280;46274;47.168;27.604;2023-03-01T04:23:41;101098.44;;;-1.04;77.17
60427;BME280;46274;47.168;27.604;2023-03-01T04:29:44;101058.94;;;-1.48;77.65
60427;BME280;46274;47.168;27.604;2023-03-01T04:35:47;101107.25;;;-1.21;77.90
60427;BME280;46274;47.168;27.604;2023-03-01T04:41:51;101091.84;;;-1.51;79.01
60427;BME280;46274;47.168;27.604;2023-03-01T04:47:57;101092.69;;;-1.32;78.87
60427;BME280;46274;47.168;27.604;2023-03-01T04:54:04;101084.25;;;-1.59;79.48
60427;BME280;46274;47.168;27.604;2023-03-01T05:00:14;101099.88;;;-1.16;78.07
60427;BME280;46274;47.168;27.604;2023-03-01T05:06:22;101089.50;;;-1.21;78.19
60427;BME280;46274;47.168;27.604;2023-03-01T05:12:24;101076.28;;;-1.22;77.59
60427;BME280;46274;47.168;27.604;2023-03-01T05:18:33;101096.63;;;-1.04;77.34
60427;BME280;46274;47.168;27.604;2023-03-01T05:24:35;101075.81;;;-1.13;77.48
60427;BME280;46274;47.168;27.604;2023-03-01T05:30:38;101012.91;;;-1.49;77.32
60427;BME280;46274;47.168;27.604;2023-03-01T05:36:41;101035.44;;;-1.39;77.61
60427;BME280;46274;47.168;27.604;2023-03-01T05:42:53;101105.06;;;-0.96;77.84
60427;BME280;46274;47.168;27.604;2023-03-01T05:48:56;101013.84;;;-1.33;77.86
60427;BME280;46274;47.168;27.604;2023-03-01T05:55:01;101110.34;;;-0.59;77.47
60427;BME280;46274;47.168;27.604;2023-03-01T06:01:05;101106.31;;;-0.51;77.36
60427;BME280;46274;47.168;27.604;2023-03-01T06:07:07;101104.66;;;-0.36;77.51
60427;BME280;46274;47.168;27.604;2023-03-01T06:13:12;101113.59;;;-0.54;77.99
60427;BME280;46274;47.168;27.604;2023-03-01T06:19:14;101110.72;;;-1.02;80.10
60427;BME280;46274;47.168;27.604;2023-03-01T06:25:20;101093.19;;;-0.71;79.48
60427;BME280;46274;47.168;27.604;2023-03-01T06:31:22;101096.53;;;0.16;78.41
60427;BME280;46274;47.168;27.604;2023-03-01T06:37:25;101076.22;;;0.46;78.12
60427;BME280;46274;47.168;27.604;2023-03-01T06:43:29;100929.94;;;-0.07;77.46
60427;BME280;46274;47.168;27.604;2023-03-01T06:49:33;101034.44;;;0.30;76.12
60427;BME280;46274;47.168;27.604;2023-03-01T06:55:35;100998.63;;;0.50;76.85
60427;BME280;46274;47.168;27.604;2023-03-01T07:01:38;101080.78;;;0.12;77.59
60427;BME280;46274;47.168;27.604;2023-03-01T07:07:40;101042.06;;;-0.11;76.60
60427;BME280;46274;47.168;27.604;2023-03-01T07:13:43;101076.84;;;0.97;76.91
60427;BME280;46274;47.168;27.604;2023-03-01T07:19:45;100959.00;;;-0.02;75.27
60427;BME280;46274;47.168;27.604;2023-03-01T07:25:53;101061.50;;;1.45;76.19
60427;BME280;46274;47.168;27.604;2023-03-01T07:31:56;101062.44;;;2.01;75.42
60427;BME280;46274;47.168;27.604;2023-03-01T07:37:59;101072.63;;;2.23;75.71
60427;BME280;46274;47.168;27.604;2023-03-01T07:44:01;101064.81;;;2.61;75.44
60427;BME280;46274;47.168;27.604;2023-03-01T07:50:04;101049.22;;;2.81;75.89
60427;BME280;46274;47.168;27.604;2023-03-01T07:56:11;101033.47;;;2.64;75.24
60427;BME280;46274;47.168;27.604;2023-03-01T08:02:14;101008.97;;;2.70;74.61
60427;BME280;46274;47.168;27.604;2023-03-01T08:08:16;101040.25;;;2.82;74.03
60427;BME280;46274;47.168;27.604;2023-03-01T08:14:19;101029.38;;;2.98;74.92
60427;BME280;46274;47.168;27.604;2023-03-01T08:20:24;101023.59;;;3.17;74.36
60427;BME280;46274;47.168;27.604;2023-03-01T08:26:26;101020.38;;;3.88;73.63
60427;BME280;46274;47.168;27.604;2023-03-01T08:32:35;101007.53;;;4.18;73.37
60427;BME280;46274;47.168;27.604;2023-03-01T08:38:38;100973.78;;;3.40;70.79
60427;BME280;46274;47.168;27.604;2023-03-01T08:44:40;100981.19;;;3.11;72.55
60427;BME280;46274;47.168;27.604;2023-03-01T08:50:46;101001.31;;;3.80;72.65
60427;BME280;46274;47.168;27.604;2023-03-01T08:56:49;100779.06;;;2.67;72.05
60427;BME280;46274;47.168;27.604;2023-03-01T09:02:51;100998.03;;;4.01;72.94
60427;BME280;46274;47.168;27.604;2023-03-01T09:08:53;100967.50;;;3.41;72.22
60427;BME280;46274;47.168;27.604;2023-03-01T09:14:56;100969.41;;;3.52;70.79
60427;BME280;46274;47.168;27.604;2023-03-01T09:21:06;100988.75;;;2.91;71.46
60427;BME280;46274;47.168;27.604;2023-03-01T09:27:09;100975.16;;;3.58;72.08
60427;BME280;46274;47.168;27.604;2023-03-01T09:33:15;101001.72;;;2.84;71.41
60427;BME280;46274;47.168;27.604;2023-03-01T09:39:20;101002.19;;;3.30;72.10
60427;BME280;46274;47.168;27.604;2023-03-01T09:45:29;100881.25;;;1.79;70.52
60427;BME280;46274;47.168;27.604;2023-03-01T09:51:36;101009.22;;;2.52;72.35
60427;BME280;46274;47.168;27.604;2023-03-01T09:57:54;101008.19;;;3.08;73.01
60427;BME280;46274;47.168;27.604;2023-03-01T10:10:10;101005.59;;;2.93;71.06
60427;BME280;46274;47.168;27.604;2023-03-01T10:16:27;100984.94;;;2.95;72.27
60427;BME280;46274;47.168;27.604;2023-03-01T10:22:31;100991.38;;;2.66;72.98
60427;BME280;46274;47.168;27.604;2023-03-01T10:35:19;100988.47;;;2.29;74.53
60427;BME280;46274;47.168;27.604;2023-03-01T10:41:25;100981.38;;;2.42;73.34
60427;BME280;46274;47.168;27.604;2023-03-01T10:47:28;100981.31;;;2.56;73.14
60427;BME280;46274;47.168;27.604;2023-03-01T10:53:41;100973.66;;;2.77;72.30
60427;BME280;46274;47.168;27.604;2023-03-01T10:59:46;100886.50;;;2.08;71.79
60427;BME280;46274;47.168;27.604;2023-03-01T11:12:11;100953.75;;;3.20;73.51
60427;BME280;46274;47.168;27.604;2023-03-01T11:18:20;100943.22;;;3.68;73.25
60427;BME280;46274;47.168;27.604;2023-03-01T11:24:48;100862.00;;;3.55;73.91
60427;BME280;46274;47.168;27.604;2023-03-01T11:31:10;100947.09;;;4.01;72.25
60427;BME280;46274;47.168;27.604;2023-03-01T11:37:41;100939.34;;;4.68;72.92
60427;BME280;46274;47.168;27.604;2023-03-01T11:43:59;100934.16;;;4.89;72.13
60427;BME280;46274;47.168;27.604;2023-03-01T11:56:38;100917.81;;;4.92;72.07
60427;BME280;46274;47.168;27.604;2023-03-01T12:15:42;100782.91;;;4.77;69.91
60427;BME280;46274;47.168;27.604;2023-03-01T12:54:33;100885.94;;;5.66;68.24
60427;BME280;46274;47.168;27.604;2023-03-01T13:13:29;100808.28;;;5.18;67.59
60427;BME280;46274;47.168;27.604;2023-03-01T13:19:32;100884.09;;;5.67;68.02
60427;BME280;46274;47.168;27.604;2023-03-01T13:32:03;100890.72;;;5.63;68.00
60427;BME280;46274;47.168;27.604;2023-03-01T13:38:44;100873.25;;;5.46;67.85
60427;BME280;46274;47.168;27.604;2023-03-01T13:44:48;100867.88;;;4.90;68.88
60427;BME280;46274;47.168;27.604;2023-03-01T13:50:58;100862.88;;;4.96;67.76
60427;BME280;46274;47.168;27.604;2023-03-01T13:57:02;100737.38;;;3.73;67.79
60427;BME280;46274;47.168;27.604;2023-03-01T14:03:18;100872.34;;;4.67;67.18
60427;BME280;46274;47.168;27.604;2023-03-01T14:09:27;100822.22;;;4.21;67.38
60427;BME280;46274;47.168;27.604;2023-03-01T14:15:38;100851.47;;;4.59;67.97
60427;BME280;46274;47.168;27.604;2023-03-01T14:21:44;100859.69;;;4.33;67.23
60427;BME280;46274;47.168;27.604;2023-03-01T14:27:55;100792.09;;;4.06;67.15
60427;BME280;46274;47.168;27.604;2023-03-01T14:33:57;100830.16;;;4.22;67.52
60427;BME280;46274;47.168;27.604;2023-03-01T14:40:01;100848.66;;;4.14;67.45
60427;BME280;46274;47.168;27.604;2023-03-01T14:46:05;100840.47;;;4.15;66.76
60427;BME280;46274;47.168;27.604;2023-03-01T14:52:28;100845.72;;;4.06;66.62
60427;BME280;46274;47.168;27.604;2023-03-01T14:58:33;100817.63;;;3.99;67.43
60427;BME280;46274;47.168;27.604;2023-03-01T15:04:35;100735.63;;;3.37;66.04
60427;BME280;46274;47.168;27.604;2023-03-01T15:10:39;100800.91;;;3.60;65.93
60427;BME280;46274;47.168;27.604;2023-03-01T15:16:44;100804.53;;;3.59;66.17
60427;BME280;46274;47.168;27.604;2023-03-01T15:22:47;100821.53;;;3.70;66.69
60427;BME280;46274;47.168;27.604;2023-03-01T15:28:52;100829.66;;;3.69;67.34
60427;BME280;46274;47.168;27.604;2023-03-01T15:34:54;100730.47;;;3.10;67.47
60427;BME280;46274;47.168;27.604;2023-03-01T15:41:03;100831.50;;;3.68;68.09
60427;BME280;46274;47.168;27.604;2023-03-01T15:47:30;100823.69;;;3.41;68.76
60427;BME280;46274;47.168;27.604;2023-03-01T15:53:34;100801.50;;;3.02;69.28
60427;BME280;46274;47.168;27.604;2023-03-01T15:59:53;100774.88;;;2.62;69.63
60427;BME280;46274;47.168;27.604;2023-03-01T16:05:55;100833.44;;;2.80;69.75
60427;BME280;46274;47.168;27.604;2023-03-01T16:11:58;100852.47;;;2.62;70.08
60427;BME280;46274;47.168;27.604;2023-03-01T16:18:00;100788.75;;;2.04;70.26
60427;BME280;46274;47.168;27.604;2023-03-01T16:24:04;100837.44;;;2.22;70.29
60427;BME280;46274;47.168;27.604;2023-03-01T16:30:06;100870.59;;;2.19;70.80
60427;BME280;46274;47.168;27.604;2023-03-01T16:36:10;100834.44;;;1.73;70.38
60427;BME280;46274;47.168;27.604;2023-03-01T16:42:13;100878.69;;;2.05;70.53
60427;BME280;46274;47.168;27.604;2023-03-01T16:48:15;100823.44;;;1.37;71.24
60427;BME280;46274;47.168;27.604;2023-03-01T16:54:18;100889.28;;;1.79;71.50
60427;BME280;46274;47.168;27.604;2023-03-01T17:00:21;100858.78;;;1.13;72.23
60427;BME280;46274;47.168;27.604;2023-03-01T17:06:24;100871.47;;;1.09;72.55
60427;BME280;46274;47.168;27.604;2023-03-01T17:12:28;100868.88;;;1.22;72.21
60427;BME280;46274;47.168;27.604;2023-03-01T17:18:31;100648.81;;;0.16;71.33
60427;BME280;46274;47.168;27.604;2023-03-01T17:24:35;100869.59;;;1.39;71.64
60427;BME280;46274;47.168;27.604;2023-03-01T17:30:41;100727.91;;;0.59;71.29
60427;BME280;46274;47.168;27.604;2023-03-01T17:36:44;100871.16;;;1.43;71.50
60427;BME280;46274;47.168;27.604;2023-03-01T17:42:48;100861.03;;;1.48;71.05
60427;BME280;46274;47.168;27.604;2023-03-01T17:48:50;100760.59;;;0.62;71.30
60427;BME280;46274;47.168;27.604;2023-03-01T17:54:52;100835.81;;;0.96;71.48
60427;BME280;46274;47.168;27.604;2023-03-01T18:00:55;100762.09;;;0.38;71.61
60427;BME280;46274;47.168;27.604;2023-03-01T18:06:58;100876.97;;;1.35;70.51
60427;BME280;46274;47.168;27.604;2023-03-01T18:13:03;100864.69;;;0.75;71.40
60427;BME280;46274;47.168;27.604;2023-03-01T18:19:05;100781.53;;;-0.35;73.23
60427;BME280;46274;47.168;27.604;2023-03-01T18:25:08;100741.03;;;-0.56;73.88
60427;BME280;46274;47.168;27.604;2023-03-01T18:31:10;100864.47;;;0.50;72.61
60427;BME280;46274;47.168;27.604;2023-03-01T18:37:13;100842.59;;;0.73;70.63
60427;BME280;46274;47.168;27.604;2023-03-01T18:43:16;100849.34;;;0.79;70.31
60427;BME280;46274;47.168;27.604;2023-03-01T18:49:19;100849.84;;;0.85;70.23
60427;BME280;46274;47.168;27.604;2023-03-01T18:55:21;100850.94;;;0.67;70.89
60427;BME280;46274;47.168;27.604;2023-03-01T19:01:27;100840.28;;;0.67;71.08
60427;BME280;46274;47.168;27.604;2023-03-01T19:07:31;100852.66;;;0.54;71.10
60427;BME280;46274;47.168;27.604;2023-03-01T19:13:35;100807.22;;;-0.50;73.89
60427;BME280;46274;47.168;27.604;2023-03-01T19:19:39;100863.75;;;0.32;72.98
60427;BME280;46274;47.168;27.604;2023-03-01T19:25:41;100839.97;;;-0.79;77.31
60427;BME280;46274;47.168;27.604;2023-03-01T19:31:44;100831.34;;;-0.53;76.44
60427;BME280;46274;47.168;27.604;2023-03-01T19:37:48;100864.44;;;0.35;72.19
60427;BME280;46274;47.168;27.604;2023-03-01T19:43:51;100871.31;;;0.39;71.58
60427;BME280;46274;47.168;27.604;2023-03-01T19:49:57;100861.06;;;-0.13;73.84
60427;BME280;46274;47.168;27.604;2023-03-01T19:56:01;100862.63;;;0.36;71.49
60427;BME280;46274;47.168;27.604;2023-03-01T20:02:03;100865.78;;;0.42;71.26
60427;BME280;46274;47.168;27.604;2023-03-01T20:08:06;100811.81;;;0.09;71.17
60427;BME280;46274;47.168;27.604;2023-03-01T20:14:10;100854.59;;;0.21;71.84
60427;BME280;46274;47.168;27.604;2023-03-01T20:20:14;100850.84;;;0.10;72.20
60427;BME280;46274;47.168;27.604;2023-03-01T20:26:16;100833.03;;;-0.20;73.39
60427;BME280;46274;47.168;27.604;2023-03-01T20:32:21;100822.41;;;-1.15;77.22
60427;BME280;46274;47.168;27.604;2023-03-01T20:38:24;100699.28;;;-1.98;78.27
60427;BME280;46274;47.168;27.604;2023-03-01T20:44:28;100858.16;;;-0.88;77.05
60427;BME280;46274;47.168;27.604;2023-03-01T20:50:30;100859.88;;;-0.23;73.73
60427;BME280;46274;47.168;27.604;2023-03-01T20:56:34;100857.63;;;-0.47;74.55
60427;BME280;46274;47.168;27.604;2023-03-01T21:02:36;100803.72;;;-0.66;74.68
60427;BME280;46274;47.168;27.604;2023-03-01T21:08:39;100860.88;;;-0.10;73.28
60427;BME280;46274;47.168;27.604;2023-03-01T21:14:42;100851.28;;;-0.60;75.98
60427;BME280;46274;47.168;27.604;2023-03-01T21:20:44;100852.81;;;-0.24;74.12
60427;BME280;46274;47.168;27.604;2023-03-01T21:26:47;100862.78;;;-0.75;75.69
60427;BME280;46274;47.168;27.604;2023-03-01T21:32:49;100865.59;;;-0.15;73.26
60427;BME280;46274;47.168;27.604;2023-03-01T21:38:52;100867.84;;;-0.39;73.86
60427;BME280;46274;47.168;27.604;2023-03-01T21:44:55;100818.31;;;-0.57;73.36
60427;BME280;46274;47.168;27.604;2023-03-01T21:51:02;100881.78;;;-0.99;76.49
60427;BME280;46274;47.168;27.604;2023-03-01T21:57:05;100751.88;;;-1.06;73.46
60427;BME280;46274;47.168;27.604;2023-03-01T22:03:16;100857.56;;;-1.26;77.80
60427;BME280;46274;47.168;27.604;2023-03-01T22:09:21;100896.72;;;-0.96;76.70
60427;BME280;46274;47.168;27.604;2023-03-01T22:15:25;100902.19;;;-1.15;78.08
60427;BME280;46274;47.168;27.604;2023-03-01T22:21:28;100898.69;;;-0.51;74.05
60427;BME280;46274;47.168;27.604;2023-03-01T22:27:45;100858.16;;;-1.21;76.38
60427;BME280;46274;47.168;27.604;2023-03-01T22:33:48;100801.34;;;-1.36;74.82
60427;BME280;46274;47.168;27.604;2023-03-01T22:39:50;100863.81;;;-1.11;75.44
60427;BME280;46274;47.168;27.604;2023-03-01T22:45:53;100918.22;;;-0.83;75.74
60427;BME280;46274;47.168;27.604;2023-03-01T22:51:55;100914.00;;;-0.88;75.84
60427;BME280;46274;47.168;27.604;2023-03-01T22:58:00;100912.22;;;-0.87;77.31
60427;BME280;46274;47.168;27.604;2023-03-01T23:04:02;100916.94;;;-0.76;77.63
60427;BME280;46274;47.168;27.604;2023-03-01T23:10:06;100894.78;;;-0.93;78.09
60427;BME280;46274;47.168;27.604;2023-03-01T23:16:10;100859.09;;;-1.22;78.28
60427;BME280;46274;47.168;27.604;2023-03-01T23:22:13;100884.34;;;-1.13;78.34
60427;BME280;46274;47.168;27.604;2023-03-01T23:28:14;100890.16;;;-1.22;78.28
60427;BME280;46274;47.168;27.604;2023-03-01T23:34:16;100893.91;;;-1.26;78.69
60427;BME280;46274;47.168;27.604;2023-03-01T23:40:20;100918.19;;;-1.17;78.87
60427;BME280;46274;47.168;27.604;2023-03-01T23:46:25;100921.72;;;-1.16;78.80
60427;BME280;46274;47.168;27.604;2023-03-01T23:52:27;100896.88;;;-1.33;78.89
60427;BME280;46274;47.168;27.604;2023-03-01T23:58:29;100863.97;;;-1.47;79.05
